createdAt,value
2018-11-13T00:01:03.690Z,15.80
2018-11-13T00:03:29.682Z,15.80
2018-11-13T00:05:55.710Z,15.80
2018-11-13T00:08:21.743Z,15.70
2018-11-13T00:10:47.734Z,15.60
2018-11-13T00:13:13.804Z,15.60
2018-11-13T00:15:39.816Z,15.60
2018-11-13T00:18:05.847Z,15.60
2018-11-13T00:20:31.835Z,15.60
2018-11-13T00:22:57.791Z,15.60
2018-11-13T00:25:23.731Z,15.50
2018-11-13T00:27:49.725Z,15.50
2018-11-13T00:30:15.675Z,15.50
2018-11-13T00:32:41.650Z,15.40
2018-11-13T00:35:07.647Z,15.40
2018-11-13T00:37:33.592Z,15.50
2018-11-13T00:39:59.570Z,15.50
2018-11-13T00:42:25.515Z,15.50
2018-11-13T00:44:51.484Z,15.50
2018-11-13T00:47:17.459Z,15.60
2018-11-13T00:49:43.443Z,15.50
2018-11-13T00:52:09.492Z,15.50
2018-11-13T00:54:35.552Z,15.40
2018-11-13T00:57:01.495Z,15.40
2018-11-13T00:59:27.513Z,15.40
2018-11-13T01:01:53.480Z,15.40
2018-11-13T01:04:19.385Z,15.40
2018-11-13T01:06:45.345Z,15.40
2018-11-13T01:09:11.302Z,15.40
2018-11-13T01:11:37.248Z,15.30
2018-11-13T01:14:03.213Z,15.30
2018-11-13T01:16:29.198Z,15.30
2018-11-13T01:18:55.154Z,15.30
2018-11-13T01:21:21.120Z,15.40
2018-11-13T01:23:47.090Z,15.30
2018-11-13T01:26:13.054Z,15.30
2018-11-13T01:28:39.038Z,15.30
2018-11-13T01:31:04.965Z,15.30
2018-11-13T01:33:30.931Z,15.30
2018-11-13T01:35:56.870Z,15.20
2018-11-13T01:38:22.828Z,15.30
2018-11-13T01:40:48.776Z,15.20
2018-11-13T01:43:14.726Z,15.20
2018-11-13T01:45:40.695Z,15.20
2018-11-13T01:48:06.668Z,15.10
2018-11-13T01:50:32.623Z,15.20
2018-11-13T01:52:58.591Z,15.10
2018-11-13T01:55:24.539Z,15.10
2018-11-13T01:57:50.492Z,15.00
2018-11-13T02:00:16.551Z,15.10
2018-11-13T02:02:42.495Z,15.10
2018-11-13T02:05:08.455Z,15.00
2018-11-13T02:07:34.431Z,15.00
2018-11-13T02:10:00.379Z,15.00
2018-11-13T02:12:26.355Z,15.00
2018-11-13T02:14:52.313Z,15.00
2018-11-13T02:17:18.269Z,15.00
2018-11-13T02:19:44.239Z,15.00
2018-11-13T02:22:10.240Z,15.00
2018-11-13T02:24:36.206Z,15.00
2018-11-13T02:27:02.206Z,14.90
2018-11-13T02:29:28.184Z,14.90
2018-11-13T02:31:54.147Z,14.80
2018-11-13T02:34:20.095Z,14.90
2018-11-13T02:36:46.087Z,14.80
2018-11-13T02:39:12.035Z,14.80
2018-11-13T02:41:38.006Z,14.70
2018-11-13T02:44:04.002Z,14.80
2018-11-13T02:46:29.964Z,14.70
2018-11-13T02:48:56.103Z,14.60
2018-11-13T02:51:22.123Z,14.70
2018-11-13T02:53:48.112Z,14.60
2018-11-13T02:56:14.093Z,14.60
2018-11-13T02:58:40.231Z,14.60
2018-11-13T03:01:06.212Z,14.60
2018-11-13T03:03:32.167Z,14.50
2018-11-13T03:05:58.207Z,14.60
2018-11-13T03:08:24.167Z,14.60
2018-11-13T03:10:50.118Z,14.60
2018-11-13T03:13:16.126Z,14.50
2018-11-13T03:15:42.107Z,14.50
2018-11-13T03:18:08.066Z,14.40
2018-11-13T03:20:34.046Z,14.50
2018-11-13T03:23:00.020Z,14.50
2018-11-13T03:25:26.003Z,14.40
2018-11-13T03:27:51.996Z,14.40
2018-11-13T03:30:18.053Z,14.40
2018-11-13T03:32:44.002Z,14.30
2018-11-13T03:35:09.965Z,14.40
2018-11-13T03:37:35.948Z,14.20
2018-11-13T03:40:01.903Z,14.20
2018-11-13T03:42:27.984Z,14.20
2018-11-13T03:44:53.939Z,14.20
2018-11-13T03:47:19.890Z,14.30
2018-11-13T03:49:45.857Z,14.30
2018-11-13T03:52:11.922Z,14.30
2018-11-13T03:54:37.930Z,14.30
2018-11-13T03:57:03.894Z,14.30
2018-11-13T03:59:29.847Z,14.30
2018-11-13T04:01:55.815Z,14.30
2018-11-13T04:04:21.826Z,14.30
2018-11-13T04:06:47.850Z,14.20
2018-11-13T04:09:13.812Z,14.30
2018-11-13T04:11:39.763Z,14.20
2018-11-13T04:14:05.740Z,14.10
2018-11-13T04:16:31.730Z,14.10
2018-11-13T04:18:57.678Z,14.10
2018-11-13T04:21:23.652Z,14.10
2018-11-13T04:23:49.599Z,13.90
2018-11-13T04:26:15.579Z,13.90
2018-11-13T04:28:41.543Z,14.00
2018-11-13T04:31:07.483Z,13.90
2018-11-13T04:33:33.430Z,14.00
2018-11-13T04:35:59.386Z,13.90
2018-11-13T04:38:25.370Z,14.00
2018-11-13T04:40:51.315Z,13.90
2018-11-13T04:43:17.741Z,13.90
2018-11-13T04:45:43.696Z,13.90
2018-11-13T04:48:09.662Z,13.90
2018-11-13T04:50:35.618Z,13.90
2018-11-13T04:53:01.582Z,13.90
2018-11-13T04:55:27.528Z,13.90
2018-11-13T04:57:53.490Z,13.90
2018-11-13T05:00:19.511Z,13.90
2018-11-13T05:02:45.500Z,13.90
2018-11-13T05:05:11.453Z,13.90
2018-11-13T05:07:37.422Z,14.00
2018-11-13T05:10:03.403Z,14.00
2018-11-13T05:12:29.357Z,14.00
2018-11-13T05:14:55.259Z,14.00
2018-11-13T05:17:21.191Z,13.90
2018-11-13T05:19:47.156Z,13.90
2018-11-13T05:22:13.094Z,13.90
2018-11-13T05:24:39.066Z,13.90
2018-11-13T05:27:05.024Z,13.90
2018-11-13T05:29:30.991Z,13.90
2018-11-13T05:31:56.979Z,13.90
2018-11-13T05:34:22.980Z,13.90
2018-11-13T05:36:48.940Z,13.90
2018-11-13T05:39:14.894Z,13.80
2018-11-13T05:41:40.906Z,13.80
2018-11-13T05:44:06.792Z,13.80
2018-11-13T05:46:32.727Z,13.80
2018-11-13T05:48:58.691Z,13.80
2018-11-13T05:51:24.627Z,13.80
2018-11-13T05:53:50.641Z,13.70
2018-11-13T05:56:23.734Z,13.80
2018-11-13T05:58:49.703Z,13.80
2018-11-13T06:01:15.648Z,13.80
2018-11-13T06:03:41.619Z,13.80
2018-11-13T06:06:07.593Z,13.80
2018-11-13T06:08:33.630Z,13.70
2018-11-13T06:10:59.515Z,13.60
2018-11-13T06:13:25.447Z,13.70
2018-11-13T06:15:51.410Z,13.60
2018-11-13T06:18:17.438Z,13.70
2018-11-13T06:20:43.342Z,13.70
2018-11-13T06:23:09.404Z,13.60
2018-11-13T06:25:35.303Z,13.60
2018-11-13T06:28:01.251Z,13.70
2018-11-13T06:30:27.199Z,13.60
2018-11-13T06:32:53.184Z,13.70
2018-11-13T06:35:19.146Z,13.70
2018-11-13T06:37:45.127Z,13.70
2018-11-13T06:40:11.092Z,13.60
2018-11-13T06:42:37.039Z,13.60
2018-11-13T06:45:02.999Z,13.70
2018-11-13T06:47:28.933Z,13.60
2018-11-13T06:49:54.908Z,13.60
2018-11-13T06:52:20.852Z,13.70
2018-11-13T06:54:46.886Z,13.70
2018-11-13T06:57:12.860Z,13.70
2018-11-13T06:59:38.835Z,13.60
2018-11-13T07:02:04.855Z,13.60
2018-11-13T07:04:30.813Z,13.60
2018-11-13T07:06:56.774Z,13.60
2018-11-13T07:09:22.735Z,13.70
2018-11-13T07:11:48.696Z,13.70
2018-11-13T07:14:14.656Z,13.70
2018-11-13T07:16:40.655Z,13.70
2018-11-13T07:19:06.601Z,13.70
2018-11-13T07:21:32.547Z,13.70
2018-11-13T07:23:58.514Z,13.60
2018-11-13T07:26:24.502Z,13.60
2018-11-13T07:28:50.464Z,13.50
2018-11-13T07:31:16.489Z,13.50
2018-11-13T07:33:42.450Z,13.60
2018-11-13T07:36:08.379Z,13.50
2018-11-13T07:38:34.312Z,13.60
2018-11-13T07:41:00.957Z,13.60
2018-11-13T07:43:26.856Z,13.60
2018-11-13T07:45:52.833Z,13.50
2018-11-13T07:48:18.794Z,13.50
2018-11-13T07:50:44.759Z,13.60
2018-11-13T07:53:10.712Z,13.50
2018-11-13T07:55:36.660Z,13.60
2018-11-13T07:58:02.625Z,13.60
2018-11-13T08:00:28.595Z,13.60
2018-11-13T08:02:54.551Z,13.60
2018-11-13T08:05:20.539Z,13.70
2018-11-13T08:07:46.486Z,13.60
2018-11-13T08:10:12.486Z,13.70
2018-11-13T08:12:38.490Z,13.70
2018-11-13T08:15:04.453Z,13.70
2018-11-13T08:17:30.461Z,13.70
2018-11-13T08:19:56.434Z,13.50
2018-11-13T08:22:22.388Z,13.60
2018-11-13T08:24:48.332Z,13.50
2018-11-13T08:27:14.321Z,13.60
2018-11-13T08:29:40.391Z,13.60
2018-11-13T08:32:06.282Z,13.60
2018-11-13T08:34:32.211Z,13.70
2018-11-13T08:36:58.191Z,13.70
2018-11-13T08:39:24.148Z,13.70
2018-11-13T08:41:50.126Z,13.80
2018-11-13T08:44:16.948Z,13.70
2018-11-13T08:46:42.782Z,13.70
2018-11-13T08:49:08.743Z,13.70
2018-11-13T08:51:34.717Z,13.70
2018-11-13T08:54:00.666Z,13.70
2018-11-13T08:56:26.615Z,13.60
2018-11-13T08:58:52.600Z,13.50
2018-11-13T09:01:18.552Z,13.60
2018-11-13T09:03:44.531Z,13.50
2018-11-13T09:06:10.484Z,13.60
2018-11-13T09:08:36.481Z,13.60
2018-11-13T09:11:02.462Z,13.50
2018-11-13T09:13:28.423Z,13.60
2018-11-13T09:15:54.375Z,13.50
2018-11-13T09:18:20.335Z,13.60
2018-11-13T09:20:46.291Z,13.60
2018-11-13T09:23:12.243Z,13.70
2018-11-13T09:25:38.191Z,13.70
2018-11-13T09:28:04.125Z,13.80
2018-11-13T09:30:30.341Z,13.80
2018-11-13T09:32:56.126Z,13.90
2018-11-13T09:35:22.074Z,13.90
2018-11-13T09:37:48.046Z,13.90
2018-11-13T09:40:14.020Z,13.90
2018-11-13T09:42:39.995Z,13.90
2018-11-13T09:45:05.956Z,13.80
2018-11-13T09:47:31.932Z,13.90
2018-11-13T09:49:57.891Z,13.90
2018-11-13T09:52:23.884Z,13.90
2018-11-13T09:54:49.887Z,13.90
2018-11-13T09:57:15.839Z,13.90
2018-11-13T09:59:41.800Z,14.00
2018-11-13T10:02:09.275Z,13.90
2018-11-13T10:04:35.249Z,13.90
2018-11-13T10:07:00.653Z,13.90
2018-11-13T10:09:26.519Z,13.90
2018-11-13T10:11:52.495Z,14.10
2018-11-13T10:14:18.515Z,14.10
2018-11-13T10:16:44.594Z,14.20
2018-11-13T10:19:10.625Z,14.40
2018-11-13T10:21:36.671Z,14.60
2018-11-13T10:24:02.632Z,14.60
2018-11-13T10:26:28.641Z,14.70
2018-11-13T10:28:54.551Z,14.60
2018-11-13T10:31:20.531Z,14.50
2018-11-13T10:33:46.494Z,14.60
2018-11-13T10:36:12.455Z,14.60
2018-11-13T10:38:38.390Z,14.60
2018-11-13T10:41:04.429Z,14.70
2018-11-13T10:43:30.347Z,14.80
2018-11-13T10:45:56.319Z,14.90
2018-11-13T10:48:22.327Z,15.10
2018-11-13T10:50:48.327Z,15.20
2018-11-13T10:53:14.267Z,15.00
2018-11-13T10:55:40.257Z,15.20
2018-11-13T10:58:06.210Z,15.50
2018-11-13T11:00:32.176Z,15.60
2018-11-13T11:02:58.239Z,15.20
2018-11-13T11:05:24.148Z,15.40
2018-11-13T11:07:50.090Z,15.20
2018-11-13T11:10:16.046Z,15.20
2018-11-13T11:12:42.112Z,15.20
2018-11-13T11:15:08.039Z,15.30
2018-11-13T11:17:34.000Z,15.00
2018-11-13T11:19:59.947Z,15.00
2018-11-13T11:22:25.886Z,15.00
2018-11-13T11:24:51.848Z,14.90
2018-11-13T11:27:17.798Z,15.00
2018-11-13T11:29:43.764Z,14.70
2018-11-13T11:32:09.718Z,14.80
2018-11-13T11:34:35.659Z,14.70
2018-11-13T11:37:01.654Z,14.60
2018-11-13T11:39:27.644Z,14.60
2018-11-13T11:41:53.592Z,14.60
2018-11-13T11:44:19.562Z,14.60
2018-11-13T11:46:45.505Z,14.50
2018-11-13T11:49:11.519Z,14.50
2018-11-13T11:51:38.661Z,14.60
2018-11-13T11:54:04.671Z,14.70
2018-11-13T11:56:30.647Z,14.60
2018-11-13T11:58:56.610Z,14.70
2018-11-13T12:01:22.575Z,14.40
2018-11-13T12:03:48.507Z,14.60
2018-11-13T12:06:14.458Z,14.50
2018-11-13T12:08:40.484Z,14.60
2018-11-13T12:11:06.447Z,14.70
2018-11-13T12:13:32.391Z,14.70
2018-11-13T12:15:58.351Z,14.70
2018-11-13T12:18:24.307Z,14.90
2018-11-13T12:20:50.290Z,14.80
2018-11-13T12:23:16.265Z,14.50
2018-11-13T12:25:42.276Z,14.50
2018-11-13T12:28:08.233Z,14.70
2018-11-13T12:30:34.183Z,14.90
2018-11-13T12:33:00.186Z,15.30
2018-11-13T12:35:26.156Z,15.30
2018-11-13T12:37:52.110Z,15.50
2018-11-13T12:40:18.120Z,15.60
2018-11-13T12:42:44.145Z,15.70
2018-11-13T12:45:10.148Z,15.60
2018-11-13T12:47:36.138Z,15.70
2018-11-13T12:50:02.105Z,15.80
2018-11-13T12:52:28.040Z,15.80
2018-11-13T12:54:54.959Z,15.70
2018-11-13T12:57:20.919Z,15.50
2018-11-13T12:59:46.867Z,15.60
2018-11-13T13:02:12.948Z,15.80
2018-11-13T13:04:38.822Z,15.70
2018-11-13T13:07:04.827Z,15.50
2018-11-13T13:09:30.798Z,15.60
2018-11-13T13:11:56.788Z,15.70
2018-11-13T13:14:22.729Z,15.70
2018-11-13T13:16:48.698Z,15.80
2018-11-13T13:19:14.657Z,15.70
2018-11-13T13:21:40.705Z,15.70
2018-11-13T13:24:06.640Z,15.70
2018-11-13T13:26:32.599Z,15.80
2018-11-13T13:28:58.554Z,15.60
2018-11-13T13:31:24.527Z,15.50
2018-11-13T13:33:50.572Z,15.60
2018-11-13T13:36:16.519Z,15.80
2018-11-13T13:38:42.656Z,15.60
2018-11-13T13:41:08.646Z,15.40
2018-11-13T13:43:34.707Z,15.40
2018-11-13T13:46:00.696Z,15.50
2018-11-13T13:48:26.635Z,15.40
2018-11-13T13:50:52.654Z,15.30
2018-11-13T13:53:18.627Z,15.50
2018-11-13T13:55:44.671Z,15.40
2018-11-13T13:58:10.627Z,15.50
2018-11-13T14:00:36.649Z,15.60
2018-11-13T14:03:02.572Z,15.30
2018-11-13T14:05:28.588Z,15.30
2018-11-13T14:07:54.582Z,15.30
2018-11-13T14:10:20.576Z,15.30
2018-11-13T14:12:46.562Z,15.30
2018-11-13T14:15:12.574Z,15.20
2018-11-13T14:17:38.538Z,15.10
2018-11-13T14:20:04.491Z,14.90
2018-11-13T14:22:30.526Z,14.80
2018-11-13T14:24:56.511Z,15.00
2018-11-13T14:27:22.515Z,15.10
2018-11-13T14:29:48.497Z,14.90
2018-11-13T14:32:14.484Z,14.90
2018-11-13T14:34:40.490Z,14.90
2018-11-13T14:37:06.488Z,14.80
2018-11-13T14:39:32.456Z,14.90
2018-11-13T14:41:58.492Z,14.70
2018-11-13T14:44:24.449Z,14.70
2018-11-13T14:46:50.509Z,14.70
2018-11-13T14:49:16.445Z,14.70
2018-11-13T14:51:42.402Z,14.70
2018-11-13T14:54:08.460Z,14.70
2018-11-13T14:56:34.426Z,14.60
2018-11-13T14:59:00.387Z,14.60
2018-11-13T15:01:26.426Z,14.40
2018-11-13T15:03:52.405Z,14.50
2018-11-13T15:06:18.364Z,14.50
2018-11-13T15:08:44.333Z,14.00
2018-11-13T15:11:10.294Z,14.30
2018-11-13T15:13:36.281Z,14.30
2018-11-13T15:16:02.227Z,14.10
2018-11-13T15:18:28.171Z,14.10
2018-11-13T15:20:54.144Z,14.00
2018-11-13T15:23:20.099Z,14.00
2018-11-13T15:25:46.103Z,14.00
2018-11-13T15:28:12.022Z,13.80
2018-11-13T15:30:38.096Z,13.80
2018-11-13T15:33:04.039Z,13.70
2018-11-13T15:35:30.200Z,13.60
2018-11-13T15:37:57.286Z,13.50
2018-11-13T15:40:23.333Z,13.50
2018-11-13T15:42:50.257Z,13.40
2018-11-13T15:45:17.258Z,13.30
2018-11-13T15:47:43.128Z,13.30
2018-11-13T15:50:09.118Z,13.20
2018-11-13T15:52:35.240Z,13.20
2018-11-13T15:55:01.085Z,13.10
2018-11-13T15:57:27.157Z,13.10
2018-11-13T15:59:53.140Z,13.00
2018-11-13T16:02:19.083Z,13.00
2018-11-13T16:04:45.100Z,12.90
2018-11-13T16:07:11.062Z,12.90
2018-11-13T16:09:37.247Z,12.90
2018-11-13T16:12:03.216Z,12.80
2018-11-13T16:14:29.223Z,12.80
2018-11-13T16:16:55.234Z,12.90
2018-11-13T16:19:21.231Z,12.90
2018-11-13T16:21:47.346Z,12.90
2018-11-13T16:24:13.270Z,13.00
2018-11-13T16:26:39.247Z,13.00
2018-11-13T16:29:05.261Z,12.90
2018-11-13T16:31:31.263Z,12.90
2018-11-13T16:33:57.360Z,12.90
2018-11-13T16:36:23.394Z,12.90
2018-11-13T16:38:49.388Z,12.90
2018-11-13T16:41:15.358Z,12.90
2018-11-13T16:43:41.308Z,12.90
2018-11-13T16:46:08.272Z,12.90
2018-11-13T16:48:34.688Z,12.90
2018-11-13T16:51:00.659Z,12.80
2018-11-13T16:53:26.658Z,12.90
2018-11-13T16:55:52.706Z,12.80
2018-11-13T16:58:18.708Z,12.80
2018-11-13T17:00:44.811Z,12.70
2018-11-13T17:03:10.663Z,12.70
2018-11-13T17:05:36.796Z,12.60
2018-11-13T17:08:02.722Z,12.60
2018-11-13T17:10:28.811Z,12.50
2018-11-13T17:12:54.968Z,12.50
2018-11-13T17:15:22.397Z,12.50
2018-11-13T17:17:49.222Z,12.40
2018-11-13T17:20:15.138Z,12.40
2018-11-13T17:22:41.203Z,12.30
2018-11-13T17:25:08.182Z,12.30
2018-11-13T17:27:34.310Z,12.20
2018-11-13T17:30:00.451Z,12.30
2018-11-13T17:32:26.388Z,12.30
2018-11-13T17:34:52.446Z,12.20
2018-11-13T17:37:18.464Z,12.20
2018-11-13T17:39:44.481Z,12.20
2018-11-13T17:42:10.439Z,12.20
2018-11-13T17:44:36.477Z,12.10
2018-11-13T17:47:02.460Z,12.10
2018-11-13T17:49:28.437Z,12.00
2018-11-13T17:51:54.533Z,12.00
2018-11-13T17:54:20.555Z,12.00
2018-11-13T17:56:46.557Z,11.90
2018-11-13T17:59:12.636Z,12.00
2018-11-13T18:01:38.729Z,11.90
2018-11-13T18:04:04.765Z,11.90
2018-11-13T18:06:30.746Z,11.80
2018-11-13T18:08:56.761Z,11.80
2018-11-13T18:11:22.820Z,11.80
2018-11-13T18:13:48.886Z,11.80
2018-11-13T18:16:14.917Z,11.80
2018-11-13T18:18:40.866Z,11.70
2018-11-13T18:21:06.927Z,11.80
2018-11-13T18:23:32.936Z,11.70
2018-11-13T18:25:58.883Z,11.60
2018-11-13T18:28:25.059Z,11.70
2018-11-13T18:30:50.790Z,11.60
2018-11-13T18:33:16.894Z,11.60
2018-11-13T18:35:42.983Z,11.60
2018-11-13T18:38:09.041Z,11.60
2018-11-13T18:40:35.072Z,11.50
2018-11-13T18:43:01.047Z,11.60
2018-11-13T18:45:27.017Z,11.60
2018-11-13T18:47:52.993Z,11.60
2018-11-13T18:50:19.061Z,11.60
2018-11-13T18:52:45.012Z,11.60
2018-11-13T18:55:11.021Z,11.50
2018-11-13T18:57:37.138Z,11.50
2018-11-13T19:00:03.168Z,11.50
2018-11-13T19:02:29.151Z,11.50
2018-11-13T19:04:56.251Z,11.40
2018-11-13T19:07:22.216Z,11.40
2018-11-13T19:09:48.191Z,11.40
2018-11-13T19:12:14.221Z,11.40
2018-11-13T19:14:40.495Z,11.30
2018-11-13T19:17:06.319Z,11.30
2018-11-13T19:19:32.381Z,11.30
2018-11-13T19:21:58.351Z,11.30
2018-11-13T19:24:24.400Z,11.20
2018-11-13T19:26:50.395Z,11.20
2018-11-13T19:29:16.411Z,11.20
2018-11-13T19:31:42.549Z,11.20
2018-11-13T19:34:09.412Z,11.20
2018-11-13T19:36:36.281Z,11.20
2018-11-13T19:39:04.297Z,11.20
2018-11-13T19:41:30.469Z,11.10
2018-11-13T19:43:56.484Z,11.00
2018-11-13T19:46:22.525Z,11.00
2018-11-13T19:48:48.533Z,11.10
2018-11-13T19:51:15.020Z,11.00
2018-11-13T19:53:41.015Z,11.00
2018-11-13T19:56:06.949Z,11.00
2018-11-13T19:58:33.001Z,11.00
2018-11-13T20:00:59.090Z,11.00
2018-11-13T20:03:25.037Z,11.00
2018-11-13T20:05:50.991Z,11.00
2018-11-13T20:08:16.997Z,10.90
2018-11-13T20:10:42.998Z,10.90
2018-11-13T20:13:09.162Z,10.90
2018-11-13T20:15:35.164Z,10.80
2018-11-13T20:18:01.111Z,10.80
2018-11-13T20:20:27.088Z,10.80
2018-11-13T20:22:53.099Z,10.80
2018-11-13T20:25:19.072Z,10.80
2018-11-13T20:27:45.114Z,10.80
2018-11-13T20:30:11.739Z,10.80
2018-11-13T20:32:38.181Z,10.80
2018-11-13T20:35:04.260Z,10.80
2018-11-13T20:37:30.347Z,10.70
2018-11-13T20:39:56.271Z,10.70
2018-11-13T20:42:22.588Z,10.70
2018-11-13T20:44:48.662Z,10.70
2018-11-13T20:47:15.000Z,10.70
2018-11-13T20:49:40.999Z,10.70
2018-11-13T20:52:07.827Z,10.60
2018-11-13T20:54:33.847Z,10.70
2018-11-13T20:56:59.801Z,10.60
2018-11-13T20:59:25.871Z,10.60
2018-11-13T21:01:52.158Z,10.60
2018-11-13T21:04:18.182Z,10.60
2018-11-13T21:06:44.188Z,10.60
2018-11-13T21:09:10.147Z,10.60
2018-11-13T21:11:36.137Z,10.60
2018-11-13T21:14:02.099Z,10.60
2018-11-13T21:16:28.151Z,10.60
2018-11-13T21:18:54.072Z,10.50
2018-11-13T21:21:20.221Z,10.60
2018-11-13T21:23:46.273Z,10.60
2018-11-13T21:26:12.220Z,10.60
2018-11-13T21:28:38.196Z,10.50
2018-11-13T21:31:04.176Z,10.50
2018-11-13T21:33:30.162Z,10.50
2018-11-13T21:35:56.170Z,10.40
2018-11-13T21:38:22.191Z,10.50
2018-11-13T21:40:48.147Z,10.50
2018-11-13T21:43:14.198Z,10.50
2018-11-13T21:45:40.235Z,10.50
2018-11-13T21:48:06.216Z,10.40
2018-11-13T21:50:32.168Z,10.40
2018-11-13T21:52:58.135Z,10.30
2018-11-13T21:55:24.145Z,10.40
2018-11-13T21:57:50.038Z,10.30
2018-11-13T22:00:16.045Z,10.30
2018-11-13T22:02:42.146Z,10.30
2018-11-13T22:05:08.107Z,10.20
2018-11-13T22:07:34.082Z,10.20
2018-11-13T22:10:00.050Z,10.30
2018-11-13T22:12:26.047Z,10.30
2018-11-13T22:14:52.405Z,10.30
2018-11-13T22:17:18.391Z,10.30
2018-11-13T22:19:44.687Z,10.30
2018-11-13T22:22:10.457Z,10.30
2018-11-13T22:24:36.430Z,10.30
2018-11-13T22:27:02.456Z,10.30
2018-11-13T22:29:28.355Z,10.30
2018-11-13T22:31:54.317Z,10.30
2018-11-13T22:34:20.396Z,10.30
2018-11-13T22:36:46.474Z,10.30
2018-11-13T22:39:12.437Z,10.30
2018-11-13T22:41:38.391Z,10.20
2018-11-13T22:44:04.335Z,10.20
2018-11-13T22:46:30.299Z,10.20
2018-11-13T22:48:56.360Z,10.10
2018-11-13T22:51:22.361Z,10.10
2018-11-13T22:53:48.331Z,10.10
2018-11-13T22:56:14.280Z,10.10
2018-11-13T22:58:40.300Z,10.10
2018-11-13T23:01:06.359Z,10.00
2018-11-13T23:03:32.398Z,10.00
2018-11-13T23:05:58.373Z,10.00
2018-11-13T23:08:24.326Z,9.90
2018-11-13T23:10:50.346Z,9.90
2018-11-13T23:13:16.347Z,9.80
2018-11-13T23:15:42.341Z,9.70
2018-11-13T23:18:08.326Z,9.70
2018-11-13T23:20:34.281Z,9.70
2018-11-13T23:23:00.259Z,9.70
2018-11-13T23:25:26.218Z,9.60
2018-11-13T23:27:52.233Z,9.50
2018-11-13T23:30:18.332Z,9.50
2018-11-13T23:32:44.270Z,9.30
2018-11-13T23:35:10.246Z,9.20
2018-11-13T23:37:36.291Z,9.30
2018-11-13T23:40:02.506Z,9.20
2018-11-13T23:42:29.039Z,9.20
2018-11-13T23:44:55.032Z,9.30
2018-11-13T23:47:21.016Z,9.10
2018-11-13T23:49:46.964Z,8.90
2018-11-13T23:52:13.167Z,8.90
2018-11-13T23:54:38.941Z,9.00
2018-11-13T23:57:04.900Z,9.00
2018-11-13T23:59:30.862Z,9.10
